Time;durP1;ratioP1;P1;durP2;ratioP2;P2;SDS_P1;SDS_P2;PMS_P1;PMS_P2;Temp;Humidity;BMP_temperature;BMP_pressure;BME280_temperature;BME280_humidity;BME280_pressure;Samples;Min_cycle;Max_cycle;Signal;HPM_P1;HPM_P2
2023/02/14 00:00:55;;;;;;;23.58;9.65;;;2.70;99.90;;;;;;5033867;28;20167;-80
2023/02/14 00:03:21;;;;;;;22.60;9.38;;;2.70;99.90;;;;;;5033299;28;20097;-80
2023/02/14 00:05:46;;;;;;;24.77;9.35;;;4.50;99.90;;;;;;5034546;28;20026;-80
2023/02/14 00:08:12;;;;;;;19.83;9.30;;;4.30;99.90;;;;;;5032222;28;20114;-80
2023/02/14 00:10:38;;;;;;;24.45;9.93;;;2.70;99.90;;;;;;5032115;28;20014;-80
2023/02/14 00:13:04;;;;;;;25.42;10.40;;;2.70;99.90;;;;;;5032401;28;20125;-80
2023/02/14 00:15:29;;;;;;;27.30;10.80;;;2.70;99.90;;;;;;5032759;28;20472;-79
2023/02/14 00:17:58;;;;;;;23.38;9.73;;;2.70;99.90;;;;;;5033866;28;20040;-80
2023/02/14 00:20:25;;;;;;;23.52;8.85;;;5.60;99.90;;;;;;5034095;28;20053;-79
2023/02/14 00:22:52;;;;;;;22.65;9.50;;;4.50;99.90;;;;;;5034098;28;20400;-80
2023/02/14 00:25:17;;;;;;;24.02;10.25;;;2.60;99.90;;;;;;5034089;28;20083;-80
2023/02/14 00:27:43;;;;;;;24.77;9.52;;;2.60;99.90;;;;;;5032739;28;20021;-80
2023/02/14 00:30:11;;;;;;;28.08;10.25;;;2.60;99.90;;;;;;5033884;28;20025;-80
2023/02/14 00:32:41;;;;;;;23.88;9.90;;;2.60;99.90;;;;;;5034683;28;20029;-80
2023/02/14 00:35:08;;;;;;;25.00;11.00;;;2.60;99.90;;;;;;5037314;28;20052;-80
2023/02/14 00:37:34;;;;;;;25.88;9.82;;;2.50;99.90;;;;;;5037682;28;20022;-80
2023/02/14 00:40:00;;;;;;;26.95;10.32;;;2.50;99.90;;;;;;5037316;28;20399;-80
2023/02/14 00:42:25;;;;;;;23.90;9.88;;;2.50;99.90;;;;;;5036242;28;20124;-80
2023/02/14 00:44:51;;;;;;;24.40;9.98;;;2.50;99.90;;;;;;5035849;28;20048;-80
2023/02/14 00:47:17;;;;;;;18.73;9.40;;;2.50;99.90;;;;;;5035784;28;20025;-80
2023/02/14 00:49:43;;;;;;;19.50;8.55;;;2.40;99.90;;;;;;5037189;28;20025;-80
2023/02/14 00:52:09;;;;;;;21.67;8.52;;;4.60;99.90;;;;;;5035468;28;20431;-80
2023/02/14 00:54:34;;;;;;;20.88;8.65;;;2.30;99.90;;;;;;5035682;28;20018;-80
2023/02/14 00:57:00;;;;;;;22.88;8.05;;;2.30;99.90;;;;;;5035884;28;20079;-80
2023/02/14 00:59:25;;;;;;;24.60;9.25;;;2.20;99.90;;;;;;5036946;28;20059;-80
2023/02/14 01:01:51;;;;;;;24.10;10.18;;;2.20;99.90;;;;;;5036807;28;20356;-80
2023/02/14 01:04:17;;;;;;;24.02;9.40;;;2.10;99.90;;;;;;5035898;28;20021;-80
2023/02/14 01:06:42;;;;;;;25.00;9.52;;;2.10;99.90;;;;;;5037392;28;20534;-80
2023/02/14 01:09:08;;;;;;;25.02;10.05;;;2.10;99.90;;;;;;5035502;28;20071;-80
2023/02/14 01:11:34;;;;;;;23.92;10.02;;;2.10;99.90;;;;;;5035715;28;20044;-80
2023/02/14 01:14:00;;;;;;;22.15;10.05;;;3.30;99.90;;;;;;5035597;28;20028;-80
2023/02/14 01:16:27;;;;;;;25.65;9.77;;;2.10;99.90;;;;;;5035433;28;20120;-80
2023/02/14 01:18:52;;;;;;;22.85;9.60;;;3.70;99.90;;;;;;5036171;28;20385;-80
2023/02/14 01:21:30;;;;;;;26.70;9.38;;;2.00;99.90;;;;;;5036480;28;20055;-80
2023/02/14 01:23:59;;;;;;;24.13;9.35;;;2.00;99.90;;;;;;5035286;28;20496;-80
2023/02/14 01:26:26;;;;;;;23.02;10.23;;;1.90;99.90;;;;;;5035218;28;20480;-80
2023/02/14 01:28:51;;;;;;;25.88;10.45;;;2.30;99.90;;;;;;5035262;28;20025;-77
2023/02/14 01:31:19;;;;;;;23.20;9.05;;;2.00;99.90;;;;;;5034686;28;20112;-76
2023/02/14 01:33:46;;;;;;;25.53;9.13;;;2.00;99.90;;;;;;5036128;28;20053;-76
2023/02/14 01:36:34;;;;;;;26.52;11.02;;;2.00;99.90;;;;;;5034788;28;20399;-76
2023/02/14 01:39:03;;;;;;;28.13;10.15;;;2.00;99.90;;;;;;5036097;28;20030;-76
2023/02/14 01:41:31;;;;;;;;;;;1.90;99.90;;;;;;5036085;28;20076;-76
2023/02/14 01:43:59;;;;;;;23.42;9.73;;;1.90;99.90;;;;;;5034927;28;20359;-76
2023/02/14 01:46:28;;;;;;;25.67;11.45;;;1.90;99.90;;;;;;5034360;28;20097;-76
2023/02/14 01:49:17;;;;;;;30.25;11.45;;;1.90;99.90;;;;;;5034472;28;20048;-76
2023/02/14 01:52:07;;;;;;;24.85;10.40;;;1.90;99.90;;;;;;5036101;28;20017;-76
2023/02/14 01:54:34;;;;;;;27.35;9.93;;;1.80;99.90;;;;;;5035261;28;20029;-76
2023/02/14 01:57:05;;;;;;;26.67;10.35;;;1.70;99.90;;;;;;5034411;28;20051;-76
2023/02/14 01:59:35;;;;;;;24.77;10.35;;;1.70;99.90;;;;;;5034190;28;20025;-76
2023/02/14 02:02:02;;;;;;;25.77;10.82;;;1.60;99.90;;;;;;5034296;28;20041;-77
2023/02/14 02:04:33;;;;;;;31.10;11.45;;;1.60;99.90;;;;;;5035603;28;20030;-77
2023/02/14 02:07:03;;;;;;;28.48;11.35;;;1.60;99.90;;;;;;5034240;28;20036;-77
2023/02/14 02:09:43;;;;;;;27.92;11.10;;;1.60;99.90;;;;;;5034804;28;20010;-77
2023/02/14 02:12:09;;;;;;;27.55;10.90;;;1.60;99.90;;;;;;5034109;28;20091;-77
2023/02/14 02:14:35;;;;;;;25.30;10.73;;;1.60;99.90;;;;;;5034165;28;20389;-76
2023/02/14 02:17:38;;;;;;;26.38;10.60;;;1.60;99.90;;;;;;5034127;28;20172;-77
2023/02/14 02:20:15;;;;;;;29.15;11.90;;;1.70;99.90;;;;;;5033966;28;20029;-77
2023/02/14 02:23:02;;;;;;;24.55;10.48;;;1.70;99.90;;;;;;5039614;22;20042;-79
2023/02/14 02:25:36;;;;;;;28.38;10.90;;;1.70;99.90;;;;;;5015694;28;20037;-80
2023/02/14 02:28:02;;;;;;;27.17;10.00;;;1.70;99.90;;;;;;5015483;28;20040;-80
2023/02/14 02:30:49;;;;;;;29.30;10.75;;;1.70;99.90;;;;;;5015491;28;20026;-80
2023/02/14 02:33:30;;;;;;;28.38;11.07;;;1.60;99.90;;;;;;4997989;28;20054;-80
2023/02/14 02:36:14;;;;;;;23.25;10.00;;;1.60;99.90;;;;;;4997733;28;20033;-80
2023/02/14 02:38:43;;;;;;;26.23;10.30;;;1.50;99.90;;;;;;4998228;28;20022;-80
2023/02/14 02:41:21;;;;;;;23.58;9.38;;;1.50;99.90;;;;;;4997789;28;20033;-80
2023/02/14 02:44:09;;;;;;;27.02;10.88;;;1.50;99.90;;;;;;4997754;28;20496;-80
2023/02/14 02:46:47;;;;;;;25.63;9.85;;;1.50;99.90;;;;;;5015833;28;20358;-80
2023/02/14 02:58:51;;;;;;;25.42;9.20;;;1.40;99.90;;;;;;4996232;28;20060;-80
2023/02/14 03:01:22;;;;;;;27.98;10.70;;;1.40;99.90;;;;;;4997477;28;20028;-80
2023/02/14 03:06:36;;;;;;;;;;;1.40;99.90;;;;;;5015649;28;20036;-80
2023/02/14 03:09:10;;;;;;;23.15;9.50;;;1.40;99.90;;;;;;4997068;28;19906;-80
2023/02/14 03:11:46;;;;;;;21.77;9.23;;;1.40;99.90;;;;;;4997271;28;20076;-80
2023/02/14 03:14:47;;;;;;;25.58;10.38;;;1.30;99.90;;;;;;5014760;28;20022;-80
2023/02/14 03:20:20;;;;;;;26.55;9.90;;;1.30;99.90;;;;;;5015285;28;20416;-80
2023/02/14 03:22:48;;;;;;;;;;;1.30;99.90;;;;;;5015479;28;20030;-80
2023/02/14 03:25:45;;;;;;;24.42;8.98;;;1.30;99.90;;;;;;4997011;28;20451;-80
2023/02/14 03:28:44;;;;;;;29.10;10.98;;;1.40;99.90;;;;;;4996432;28;20040;-80
2023/02/14 03:31:22;;;;;;;26.77;10.40;;;1.40;99.90;;;;;;5014505;28;20033;-80
2023/02/14 03:34:14;;;;;;;28.30;10.65;;;1.40;99.90;;;;;;4997008;28;20026;-80
2023/02/14 03:36:47;;;;;;;30.35;11.40;;;1.40;99.90;;;;;;4997074;28;20021;-80
2023/02/14 03:39:45;;;;;;;28.58;10.52;;;1.50;99.90;;;;;;4997096;28;20034;-80
2023/02/14 03:42:23;;;;;;;22.45;8.65;;;1.60;99.90;;;;;;4954620;28;20081;-80
2023/02/14 03:44:53;;;;;;;29.63;11.70;;;1.60;99.90;;;;;;5014802;28;20049;-80
2023/02/14 03:47:23;;;;;;;26.33;10.90;;;1.60;99.90;;;;;;4996718;28;20030;-80
2023/02/14 03:50:03;;;;;;;25.75;10.15;;;1.30;99.90;;;;;;5014434;28;20018;-80
2023/02/14 03:52:30;;;;;;;33.40;11.95;;;1.60;99.90;;;;;;4996712;28;20029;-79
2023/02/14 03:54:59;;;;;;;30.25;10.77;;;1.60;99.90;;;;;;4996800;28;20018;-80
2023/02/14 03:57:30;;;;;;;24.50;10.20;;;1.60;99.90;;;;;;4995899;28;20030;-80
2023/02/14 03:59:56;;;;;;;30.60;10.90;;;1.60;99.90;;;;;;5014397;28;20113;-80
2023/02/14 04:02:36;;;;;;;28.77;11.32;;;1.60;99.90;;;;;;4996573;28;20057;-80
2023/02/14 04:05:08;;;;;;;23.77;9.95;;;1.60;99.90;;;;;;5014287;28;20033;-80
2023/02/14 04:07:45;;;;;;;26.67;11.25;;;1.60;99.90;;;;;;5000715;28;20419;-80
2023/02/14 04:10:10;;;;;;;24.13;9.27;;;1.60;99.90;;;;;;5018103;28;20092;-79
2023/02/14 04:12:36;;;;;;;21.88;9.73;;;1.60;99.90;;;;;;5018415;28;20053;-80
2023/02/14 04:15:02;;;;;;;24.23;9.98;;;1.60;99.90;;;;;;5000470;28;20022;-80
2023/02/14 04:20:12;;;;;;;23.90;9.82;;;1.50;99.90;;;;;;5017892;28;20072;-79
2023/02/14 04:22:37;;;;;;;28.30;10.32;;;1.50;99.90;;;;;;5018278;28;20042;-80
2023/02/14 04:25:03;;;;;;;23.95;10.10;;;1.50;99.90;;;;;;5017878;28;20029;-80
2023/02/14 04:27:29;;;;;;;25.23;10.10;;;1.50;99.90;;;;;;5017745;28;20400;-80
2023/02/14 04:29:55;;;;;;;27.33;10.15;;;1.50;99.90;;;;;;5000513;28;20022;-80
2023/02/14 04:32:21;;;;;;;26.67;10.70;;;1.60;99.90;;;;;;5017632;28;20480;-80
2023/02/14 04:34:47;;;;;;;25.20;10.40;;;1.60;99.90;;;;;;5017598;28;20018;-80
2023/02/14 04:37:15;;;;;;;25.40;10.38;;;1.60;99.90;;;;;;5017022;28;20160;-80
2023/02/14 04:39:40;;;;;;;27.58;10.02;;;1.60;99.90;;;;;;4999851;28;20022;-80
2023/02/14 04:42:06;;;;;;;24.90;10.32;;;1.60;99.90;;;;;;5000113;28;20048;-80
2023/02/14 04:44:37;;;;;;;25.73;10.55;;;1.60;99.90;;;;;;5017499;28;20017;-80
2023/02/14 04:47:03;;;;;;;24.05;9.75;;;1.70;99.90;;;;;;5000094;28;20029;-79
2023/02/14 04:49:29;;;;;;;25.25;10.48;;;1.70;99.90;;;;;;5017710;28;20097;-79
2023/02/14 04:51:55;;;;;;;20.73;8.80;;;1.70;99.90;;;;;;5000137;28;20052;-79
2023/02/14 04:54:20;;;;;;;23.50;9.80;;;1.80;99.90;;;;;;5000162;28;20030;-79
2023/02/14 04:56:46;;;;;;;27.10;9.73;;;1.80;99.90;;;;;;4999950;28;20032;-79
2023/02/14 04:59:13;;;;;;;23.35;9.77;;;1.80;99.90;;;;;;4999528;28;20025;-79
2023/02/14 05:01:39;;;;;;;22.70;9.35;;;1.80;99.90;;;;;;4999629;28;20018;-79
2023/02/14 05:04:05;;;;;;;23.85;10.65;;;1.80;99.90;;;;;;4999357;28;20404;-79
2023/02/14 05:06:31;;;;;;;22.92;8.73;;;1.80;99.90;;;;;;4999335;28;20022;-79
2023/02/14 05:08:57;;;;;;;24.83;9.07;;;1.90;99.90;;;;;;4998706;28;20088;-79
2023/02/14 05:11:23;;;;;;;29.40;10.25;;;3.80;99.90;;;;;;4999307;28;20030;-79
2023/02/14 05:13:48;;;;;;;20.25;8.90;;;1.90;99.90;;;;;;5017451;28;20065;-79
2023/02/14 05:16:14;;;;;;;26.23;10.15;;;3.50;99.90;;;;;;4999409;28;20084;-79
2023/02/14 05:18:40;;;;;;;21.80;9.23;;;1.90;99.90;;;;;;4998551;28;20388;-79
2023/02/14 05:21:05;;;;;;;21.98;9.20;;;1.90;99.90;;;;;;4999219;28;20020;-79
2023/02/14 05:23:31;;;;;;;23.73;9.32;;;1.90;99.90;;;;;;4999156;28;20026;-80
2023/02/14 05:25:57;;;;;;;23.17;9.15;;;1.90;99.90;;;;;;4999097;28;20488;-80
2023/02/14 05:28:22;;;;;;;20.95;9.02;;;1.90;99.90;;;;;;4999011;28;20037;-80
2023/02/14 05:30:50;;;;;;;21.80;9.73;;;1.90;99.90;;;;;;4999109;28;20076;-79
2023/02/14 05:33:16;;;;;;;25.75;9.63;;;1.90;99.90;;;;;;5016480;28;20022;-80
2023/02/14 05:35:41;;;;;;;22.58;9.27;;;2.00;99.90;;;;;;4999329;28;20033;-79
2023/02/14 05:38:07;;;;;;;24.35;8.77;;;1.90;99.90;;;;;;4998616;28;20072;-76
2023/02/14 05:40:33;;;;;;;27.80;8.63;;;2.00;99.90;;;;;;4998878;28;20025;-76
2023/02/14 05:42:58;;;;;;;25.92;9.52;;;2.00;99.90;;;;;;5016182;28;20022;-76
2023/02/14 05:45:24;;;;;;;23.75;9.95;;;2.00;99.90;;;;;;4998737;28;20493;-76
2023/02/14 05:47:50;;;;;;;24.88;9.07;;;2.00;99.90;;;;;;5016135;28;20034;-76
2023/02/14 05:50:16;;;;;;;25.77;8.95;;;2.10;99.90;;;;;;5016060;28;20029;-75
2023/02/14 05:52:42;;;;;;;23.85;9.25;;;2.00;99.90;;;;;;4998161;28;20026;-76
2023/02/14 05:55:09;;;;;;;22.10;9.48;;;2.00;99.90;;;;;;5015713;28;20025;-76
2023/02/14 05:57:34;;;;;;;26.40;9.45;;;2.00;99.90;;;;;;5015755;28;20503;-76
2023/02/14 06:00:00;;;;;;;24.70;8.95;;;2.10;99.90;;;;;;4998269;28;20113;-76
2023/02/14 06:02:25;;;;;;;21.33;9.35;;;2.00;99.90;;;;;;5015622;28;20022;-76
2023/02/14 06:04:51;;;;;;;23.77;9.07;;;2.00;99.90;;;;;;5015645;28;20063;-76
2023/02/14 06:07:17;;;;;;;23.67;8.90;;;2.00;99.90;;;;;;5014791;28;20033;-75
2023/02/14 06:09:42;;;;;;;25.65;9.73;;;2.00;99.90;;;;;;4998259;28;20388;-75
2023/02/14 06:12:08;;;;;;;24.85;10.55;;;2.00;99.90;;;;;;5015663;28;20022;-76
2023/02/14 06:14:33;;;;;;;25.00;9.27;;;2.00;99.90;;;;;;4998062;28;20033;-75
2023/02/14 06:16:59;;;;;;;24.58;9.48;;;2.00;99.90;;;;;;4998345;28;20052;-75
2023/02/14 06:19:24;;;;;;;21.70;8.55;;;2.00;99.90;;;;;;5015631;28;20396;-75
2023/02/14 06:21:50;;;;;;;26.33;10.02;;;2.00;99.90;;;;;;4997862;28;20392;-75
2023/02/14 06:24:16;;;;;;;27.73;9.30;;;2.10;99.90;;;;;;4997945;28;20041;-75
2023/02/14 06:26:42;;;;;;;42.60;10.20;;;2.10;99.90;;;;;;4997926;28;20022;-75
2023/02/14 06:29:07;;;;;;;45.15;10.50;;;3.30;99.90;;;;;;4996858;28;20018;-75
2023/02/14 06:31:33;;;;;;;38.20;10.32;;;2.10;99.90;;;;;;4997627;28;20468;-75
2023/02/14 06:33:58;;;;;;;47.88;9.27;;;2.20;99.90;;;;;;5015468;28;20025;-76
2023/02/14 06:36:24;;;;;;;32.65;9.60;;;2.20;99.90;;;;;;4996999;28;20032;-76
2023/02/14 06:38:50;;;;;;;37.30;9.25;;;2.20;99.90;;;;;;4998096;28;20048;-75
2023/02/14 06:41:16;;;;;;;44.92;9.02;;;2.20;99.90;;;;;;5015259;28;20026;-76
2023/02/14 06:43:43;;;;;;;43.65;8.82;;;2.20;99.90;;;;;;5015298;28;20037;-76
2023/02/14 06:46:09;;;;;;;47.15;7.88;;;2.20;99.90;;;;;;5015150;28;20025;-75
2023/02/14 06:48:35;;;;;;;25.52;7.38;;;2.20;99.90;;;;;;5015257;28;20064;-75
2023/02/14 06:51:01;;;;;;;35.25;7.97;;;2.10;99.90;;;;;;4997532;28;20070;-76
2023/02/14 06:53:27;;;;;;;37.42;7.28;;;2.10;99.90;;;;;;5014879;28;20026;-75
2023/02/14 06:55:53;;;;;;;30.40;7.50;;;2.10;99.90;;;;;;4997364;28;20405;-76
2023/02/14 06:58:18;;;;;;;38.47;8.52;;;2.00;99.90;;;;;;4997331;28;20018;-77
2023/02/14 07:00:44;;;;;;;29.25;8.05;;;2.00;99.90;;;;;;4997377;28;20037;-77
2023/02/14 07:03:09;;;;;;;19.38;7.07;;;2.00;99.90;;;;;;5015280;28;20382;-77
2023/02/14 07:05:36;;;;;;;24.42;7.25;;;2.00;99.90;;;;;;5014234;28;20026;-77
2023/02/14 07:08:01;;;;;;;28.08;8.02;;;2.00;99.90;;;;;;5014609;28;20392;-77
2023/02/14 07:10:27;;;;;;;28.02;8.32;;;2.00;99.90;;;;;;4996999;28;20122;-77
2023/02/14 07:12:52;;;;;;;25.08;7.88;;;1.90;99.90;;;;;;4996845;28;20026;-77
2023/02/14 07:15:18;;;;;;;20.40;8.15;;;3.50;99.90;;;;;;4996971;28;20026;-77
2023/02/14 07:17:44;;;;;;;20.40;8.18;;;2.20;99.90;;;;;;4996807;28;20030;-76
2023/02/14 07:20:10;;;;;;;28.98;8.48;;;1.90;99.90;;;;;;4996909;28;20499;-77
2023/02/14 07:22:36;;;;;;;22.55;8.05;;;1.90;99.90;;;;;;4996918;28;20116;-77
2023/02/14 07:25:03;;;;;;;19.65;8.25;;;1.90;99.90;;;;;;5014478;28;20108;-77
2023/02/14 07:27:29;;;;;;;25.10;7.97;;;2.50;99.90;;;;;;5014562;28;20473;-76
2023/02/14 07:29:54;;;;;;;18.60;8.10;;;1.90;99.90;;;;;;4996920;28;20021;-77
2023/02/14 07:32:20;;;;;;;21.10;8.23;;;1.90;99.90;;;;;;4996764;28;20049;-77
2023/02/14 07:34:46;;;;;;;23.48;8.77;;;1.90;99.90;;;;;;5013673;28;20093;-76
2023/02/14 07:37:12;;;;;;;22.55;8.63;;;1.90;99.90;;;;;;4996706;28;20456;-77
2023/02/14 07:39:38;;;;;;;21.08;8.52;;;2.00;99.90;;;;;;4996578;28;20069;-77
2023/02/14 07:42:03;;;;;;;18.98;8.25;;;2.00;99.90;;;;;;4996294;28;20053;-77
2023/02/14 07:44:29;;;;;;;18.92;8.50;;;2.00;99.90;;;;;;4996739;28;20113;-76
2023/02/14 07:46:54;;;;;;;23.90;7.85;;;2.00;99.90;;;;;;4996876;28;20022;-76
2023/02/14 07:49:20;;;;;;;20.58;8.10;;;2.10;99.90;;;;;;4996754;28;20481;-76
2023/02/14 07:51:46;;;;;;;18.42;8.60;;;2.10;99.90;;;;;;5014142;28;20029;-76
2023/02/14 07:54:11;;;;;;;20.02;8.75;;;2.10;99.90;;;;;;5015012;28;20026;-76
2023/02/14 07:56:37;;;;;;;19.55;8.88;;;2.10;99.90;;;;;;5014416;28;20029;-76
2023/02/14 07:59:02;;;;;;;26.83;9.93;;;2.20;99.90;;;;;;5014282;28;20033;-76
2023/02/14 08:01:28;;;;;;;21.55;9.10;;;2.30;99.90;;;;;;4996717;28;20018;-76
2023/02/14 08:03:53;;;;;;;19.08;9.30;;;2.30;99.90;;;;;;5013655;28;20030;-76
2023/02/14 08:06:19;;;;;;;25.77;10.32;;;2.30;99.90;;;;;;4996741;28;20022;-77
2023/02/14 08:08:48;;;;;;;22.42;10.07;;;2.40;99.90;;;;;;4996509;28;20026;-76
2023/02/14 08:13:02;;;;;;;19.65;9.13;;;2.50;99.90;;;;;;4996605;28;20025;-76
2023/02/14 08:14:03;;;;;;;23.55;10.80;;;2.50;99.90;;;;;;5013868;28;20034;-76
2023/02/14 08:16:32;;;;;;;22.88;10.15;;;2.50;99.90;;;;;;5014068;28;20432;-76
2023/02/14 08:18:58;;;;;;;25.20;10.85;;;2.60;99.90;;;;;;5014024;28;20030;-76
2023/02/14 08:21:24;;;;;;;24.65;9.65;;;3.90;99.90;;;;;;5014043;28;20388;-76
2023/02/14 08:23:50;;;;;;;30.05;11.35;;;2.80;99.90;;;;;;4996416;28;20063;-76
2023/02/14 08:26:16;;;;;;;27.60;11.23;;;2.90;99.90;;;;;;4996179;28;20038;-76
2023/02/14 08:28:42;;;;;;;24.05;10.23;;;3.00;99.90;;;;;;5014137;28;20046;-76
2023/02/14 08:31:08;;;;;;;24.30;10.30;;;3.00;99.90;;;;;;5014047;28;20037;-76
2023/02/14 08:33:33;;;;;;;24.80;10.40;;;3.10;99.90;;;;;;4996789;28;20014;-76
2023/02/14 08:35:59;;;;;;;28.15;11.40;;;3.50;99.90;;;;;;4996285;28;20037;-76
2023/02/14 08:38:25;;;;;;;22.67;10.57;;;3.30;99.90;;;;;;4995591;28;20461;-76
2023/02/14 08:40:50;;;;;;;28.52;11.40;;;3.40;99.90;;;;;;5014106;28;20026;-76
2023/02/14 08:43:16;;;;;;;31.40;12.27;;;3.50;99.90;;;;;;4996556;28;20401;-76
2023/02/14 08:45:42;;;;;;;32.15;13.02;;;3.60;99.90;;;;;;5013872;28;20037;-76
2023/02/14 08:48:10;;;;;;;31.95;12.38;;;3.70;99.90;;;;;;4995784;28;20034;-76
2023/02/14 08:50:39;;;;;;;25.95;11.70;;;3.70;99.90;;;;;;5013616;28;20014;-76
2023/02/14 08:53:10;;;;;;;25.15;12.27;;;3.70;99.90;;;;;;5015140;28;20026;-76
2023/02/14 08:55:36;;;;;;;24.90;12.00;;;3.90;99.90;;;;;;4999251;28;20018;-76
2023/02/14 08:58:02;;;;;;;28.25;12.85;;;4.00;99.90;;;;;;4999426;28;20018;-76
2023/02/14 09:00:28;;;;;;;26.25;12.50;;;4.10;99.90;;;;;;4999070;28;20174;-76
2023/02/14 09:02:54;;;;;;;24.85;11.77;;;4.20;99.90;;;;;;5016836;28;20104;-76
2023/02/14 09:05:22;;;;;;;28.60;12.38;;;4.30;99.90;;;;;;5016719;28;20093;-76
2023/02/14 09:07:48;;;;;;;32.57;13.43;;;4.40;99.90;;;;;;4999184;28;20021;-76
2023/02/14 09:10:13;;;;;;;35.88;13.95;;;4.50;99.90;;;;;;4998581;28;20022;-76
2023/02/14 09:12:40;;;;;;;32.45;14.75;;;4.60;99.90;;;;;;4999124;28;20113;-76
2023/02/14 09:15:07;;;;;;;31.83;13.85;;;4.70;99.90;;;;;;4998872;28;20030;-76
2023/02/14 09:17:34;;;;;;;31.60;14.30;;;4.80;99.90;;;;;;4998935;28;20025;-76
2023/02/14 09:19:59;;;;;;;34.08;14.60;;;4.90;99.90;;;;;;4999024;28;20018;-76
2023/02/14 09:22:25;;;;;;;35.50;15.20;;;5.00;99.90;;;;;;5016431;28;20374;-76
2023/02/14 09:24:50;;;;;;;33.55;13.43;;;5.10;99.90;;;;;;4999078;28;20076;-76
2023/02/14 09:27:16;;;;;;;38.47;16.23;;;5.20;99.90;;;;;;5016607;28;20025;-76
2023/02/14 09:29:42;;;;;;;32.08;14.13;;;5.40;99.90;;;;;;5016697;28;20018;-76
2023/02/14 09:32:07;;;;;;;33.03;14.45;;;5.50;99.90;;;;;;4999086;28;20041;-76
2023/02/14 09:34:34;;;;;;;32.88;14.68;;;5.60;99.90;;;;;;5016594;28;20014;-76
2023/02/14 09:36:59;;;;;;;34.50;14.18;;;5.70;99.90;;;;;;4998820;28;20030;-76
2023/02/14 09:39:25;;;;;;;29.35;13.82;;;5.90;99.90;;;;;;5016039;28;20025;-76
2023/02/14 09:42:20;;;;;;;30.73;13.63;;;5.90;99.90;;;;;;5015976;28;20105;-76
2023/02/14 09:44:56;;;;;;;38.25;15.27;;;6.00;99.90;;;;;;5016235;28;20045;-76
2023/02/14 09:47:49;;;;;;;33.58;13.57;;;6.20;99.90;;;;;;4998227;28;20125;-76
2023/02/14 09:50:23;;;;;;;33.33;13.70;;;6.30;99.90;;;;;;4998413;28;20088;-76
2023/02/14 09:52:54;;;;;;;32.97;14.27;;;6.40;99.90;;;;;;4998532;28;20061;-76
2023/02/14 09:55:20;;;;;;;34.63;14.20;;;6.50;99.90;;;;;;5016343;28;20108;-76
2023/02/14 09:58:07;;;;;;;30.30;14.63;;;6.60;99.90;;;;;;5015473;28;20551;-76
2023/02/14 10:00:46;;;;;;;35.58;15.02;;;6.70;99.90;;;;;;4997559;28;20021;-76
2023/02/14 10:03:26;;;;;;;31.58;14.40;;;6.80;99.90;;;;;;5015496;28;20026;-76
2023/02/14 10:06:03;;;;;;;32.83;14.82;;;6.90;99.90;;;;;;5015192;28;20022;-76
2023/02/14 10:08:31;;;;;;;27.90;13.70;;;7.00;99.90;;;;;;5015180;28;20073;-76
2023/02/14 10:11:06;;;;;;;28.20;12.88;;;7.00;99.90;;;;;;4998012;28;20120;-76
2023/02/14 10:14:02;;;;;;;29.98;14.05;;;7.10;99.90;;;;;;5016041;28;20040;-76
2023/02/14 10:16:36;;;;;;;30.92;14.18;;;7.20;99.90;;;;;;5013777;28;20530;-76
2023/02/14 10:19:06;;;;;;;27.73;13.40;;;7.30;99.90;;;;;;4997403;28;20080;-76
2023/02/14 10:22:02;;;;;;;29.02;13.80;;;7.30;99.90;;;;;;4997752;28;20032;-76
2023/02/14 10:24:56;;;;;;;30.23;14.02;;;7.50;99.90;;;;;;5014054;28;20116;-76
2023/02/14 10:27:44;;;;;;;27.90;13.35;;;7.60;99.90;;;;;;4997773;28;20032;-76
2023/02/14 10:30:15;;;;;;;34.10;13.73;;;7.80;99.90;;;;;;4997952;28;20058;-76
2023/02/14 10:32:59;;;;;;;29.88;13.65;;;7.90;99.90;;;;;;4998075;28;20081;-76
2023/02/14 10:35:43;;;;;;;26.55;12.82;;;8.10;99.90;;;;;;4997921;28;20029;-76
2023/02/14 10:38:47;;;;;;;26.00;12.55;;;8.20;99.90;;;;;;5015278;28;20061;-76
2023/02/14 10:41:52;;;;;;;26.17;12.88;;;8.30;99.90;;;;;;4997672;28;20484;-76
2023/02/14 10:44:35;;;;;;;28.67;12.85;;;8.40;99.90;;;;;;4997337;28;20471;-76
2023/02/14 10:47:08;;;;;;;28.58;13.05;;;8.50;99.90;;;;;;5015002;28;20034;-76
2023/02/14 10:49:46;;;;;;;28.98;13.95;;;8.60;99.90;;;;;;5014686;28;20385;-76
2023/02/14 10:52:15;;;;;;;26.38;12.07;;;8.70;99.90;;;;;;4997695;28;20524;-76
2023/02/14 10:54:58;;;;;;;26.75;12.05;;;8.90;99.90;;;;;;5014862;28;20437;-76
2023/02/14 10:57:35;;;;;;;28.40;13.23;;;9.00;99.90;;;;;;4997812;28;20032;-76
2023/02/14 11:00:22;;;;;;;27.15;13.00;;;9.10;99.90;;;;;;4997486;28;20030;-76
2023/02/14 11:02:52;;;;;;;27.52;13.68;;;9.20;99.90;;;;;;5015386;28;20030;-76
2023/02/14 11:05:38;;;;;;;28.15;13.18;;;9.40;99.90;;;;;;5015069;28;20535;-76
2023/02/14 11:08:35;;;;;;;27.48;12.65;;;9.40;99.90;;;;;;5014845;28;20025;-76
2023/02/14 11:11:04;;;;;;;30.97;13.03;;;9.50;99.90;;;;;;5014520;28;20021;-76
2023/02/14 11:13:36;;;;;;;28.52;13.23;;;9.60;99.90;;;;;;5014736;28;20026;-76
2023/02/14 11:16:05;;;;;;;29.60;14.00;;;9.60;99.90;;;;;;4996238;28;20026;-76
2023/02/14 11:18:34;;;;;;;33.97;13.32;;;9.80;99.90;;;;;;4996920;28;20060;-76
2023/02/14 11:21:03;;;;;;;23.13;12.07;;;9.90;99.90;;;;;;5014398;28;20064;-76
2023/02/14 11:23:35;;;;;;;29.25;14.57;;;10.00;99.90;;;;;;4996722;28;20037;-76
2023/02/14 11:26:04;;;;;;;30.70;13.80;;;10.20;99.90;;;;;;5014493;28;20041;-76
2023/02/14 11:28:32;;;;;;;29.10;14.02;;;10.30;99.90;;;;;;4996680;28;20113;-76
2023/02/14 11:30:58;;;;;;;29.63;12.88;;;10.60;99.90;;;;;;4996409;28;20489;-76
2023/02/14 11:33:41;;;;;;;26.95;13.13;;;10.50;99.90;;;;;;4996696;28;20025;-76
2023/02/14 11:36:12;;;;;;;30.55;13.40;;;10.50;99.90;;;;;;4996279;28;20029;-76
2023/02/14 11:38:39;;;;;;;27.35;13.63;;;10.60;99.90;;;;;;4996482;28;20025;-76
2023/02/14 11:41:09;;;;;;;29.48;13.27;;;10.60;99.90;;;;;;4996567;28;20034;-76
2023/02/14 11:43:36;;;;;;;32.78;12.93;;;10.70;99.90;;;;;;4995913;28;20018;-76
2023/02/14 11:46:07;;;;;;;27.17;12.32;;;10.90;99.90;;;;;;4996290;28;20026;-76
2023/02/14 11:48:34;;;;;;;31.75;13.60;;;11.00;99.90;;;;;;5013785;28;20063;-76
2023/02/14 11:51:05;;;;;;;27.25;13.25;;;11.10;99.90;;;;;;5013372;28;20022;-76
2023/02/14 11:53:33;;;;;;;26.23;12.98;;;11.30;99.90;;;;;;4995946;28;20057;-76
2023/02/14 11:56:00;;;;;;;24.20;12.00;;;11.40;99.90;;;;;;4996010;28;20033;-76
2023/02/14 11:58:33;;;;;;;29.75;13.70;;;11.40;99.90;;;;;;4995938;28;20024;-76
2023/02/14 12:01:00;;;;;;;28.20;11.93;;;11.50;99.90;;;;;;5013490;28;20062;-76
2023/02/14 12:03:30;;;;;;;27.67;12.07;;;11.70;99.90;;;;;;4995680;28;20029;-77
2023/02/14 12:05:59;;;;;;;24.70;13.15;;;11.80;99.90;;;;;;4995556;28;20030;-77
2023/02/14 12:08:28;;;;;;;29.08;12.75;;;11.90;99.90;;;;;;4995650;28;20030;-76
2023/02/14 12:11:18;;;;;;;24.13;11.68;;;11.90;99.90;;;;;;4995629;28;20477;-76
2023/02/14 12:13:54;;;;;;;23.13;11.13;;;12.00;99.90;;;;;;5001667;28;20439;-77
2023/02/14 12:16:33;;;;;;;26.17;12.55;;;12.10;99.90;;;;;;4995632;28;20484;-76
2023/02/14 12:19:02;;;;;;;23.67;11.68;;;11.90;99.90;;;;;;5013085;28;20536;-77
2023/02/14 12:21:48;;;;;;;25.25;11.40;;;12.10;99.90;;;;;;4995345;28;20033;-76
2023/02/14 12:24:37;;;;;;;25.35;12.02;;;12.30;99.90;;;;;;4995414;28;20085;-77
2023/02/14 12:27:27;;;;;;;26.50;12.02;;;12.50;99.90;;;;;;5014530;28;20026;-76
2023/02/14 12:30:01;;;;;;;23.85;11.43;;;12.70;99.90;;;;;;5017206;28;20475;-76
2023/02/14 12:32:29;;;;;;;27.85;12.15;;;12.90;99.90;;;;;;5016641;28;20029;-76
2023/02/14 12:35:03;;;;;;;25.98;12.05;;;13.00;99.90;;;;;;5017132;28;20081;-76
2023/02/14 12:37:34;;;;;;;28.15;13.02;;;13.20;99.90;;;;;;5016625;28;20029;-76
2023/02/14 12:40:10;;;;;;;21.80;11.32;;;13.50;99.90;;;;;;4998848;28;20036;-76
2023/02/14 12:42:41;;;;;;;25.38;11.80;;;12.60;99.90;;;;;;5017052;28;20127;-76
2023/02/14 12:45:19;;;;;;;23.88;11.50;;;13.60;99.90;;;;;;4998886;28;20488;-77
2023/02/14 12:48:00;;;;;;;23.48;11.27;;;13.50;99.90;;;;;;4998912;28;20041;-76
2023/02/14 12:50:37;;;;;;;23.38;11.40;;;13.50;99.90;;;;;;5016824;28;20527;-76
2023/02/14 12:53:23;;;;;;;22.95;11.48;;;13.50;99.90;;;;;;4998726;28;20081;-76
2023/02/14 12:56:13;;;;;;;23.00;11.30;;;13.70;99.90;;;;;;4998586;28;20109;-76
2023/02/14 12:58:53;;;;;;;26.30;10.45;;;13.70;99.90;;;;;;5016183;28;20026;-76
2023/02/14 13:01:32;;;;;;;21.48;10.93;;;13.90;99.90;;;;;;5016656;28;20100;-76
2023/02/14 13:04:27;;;;;;;24.27;10.98;;;14.00;99.90;;;;;;5016139;28;20026;-76
2023/02/14 13:07:05;;;;;;;21.42;10.23;;;14.20;99.90;;;;;;4998489;28;20540;-76
2023/02/14 13:09:46;;;;;;;19.65;10.07;;;14.40;99.90;;;;;;5016128;28;20030;-76
2023/02/14 13:12:30;;;;;;;20.67;10.15;;;14.30;99.90;;;;;;5015969;28;20025;-76
2023/02/14 13:15:40;;;;;;;23.50;11.18;;;14.50;99.90;;;;;;4998371;28;20068;-76
2023/02/14 13:18:06;;;;;;;22.58;9.85;;;14.60;99.90;;;;;;4936646;29;20136;-75